createdAt,value
2019-04-14T00:02:36.797Z,53.60
2019-04-14T00:05:08.560Z,51.77
2019-04-14T00:07:38.485Z,51.97
2019-04-14T00:10:09.799Z,52.97
2019-04-14T00:12:39.103Z,50.97
2019-04-14T00:15:21.160Z,50.70
2019-04-14T00:17:41.299Z,45.27
2019-04-14T00:20:11.870Z,51.43
2019-04-14T00:22:42.440Z,52.53
2019-04-14T00:25:12.999Z,48.57
2019-04-14T00:27:43.208Z,49.30
2019-04-14T00:30:14.433Z,50.93
2019-04-14T00:32:48.788Z,54.70
2019-04-14T00:35:30.479Z,53.10
2019-04-14T00:38:21.847Z,53.37
2019-04-14T00:41:16.426Z,54.60
2019-04-14T00:44:21.033Z,53.73
2019-04-14T00:46:54.102Z,54.63
2019-04-14T00:49:24.625Z,52.87
2019-04-14T00:51:54.982Z,56.97
2019-04-14T00:54:24.431Z,56.57
2019-04-14T00:56:54.198Z,52.47
2019-04-14T00:59:24.715Z,51.57
2019-04-14T01:01:54.796Z,56.27
2019-04-14T01:04:25.119Z,55.00
2019-04-14T01:06:55.503Z,53.83
2019-04-14T01:09:26.090Z,55.27
2019-04-14T01:11:55.953Z,55.70
2019-04-14T01:14:25.568Z,50.40
2019-04-14T01:16:55.854Z,51.57
2019-04-14T01:19:25.158Z,55.83
2019-04-14T01:21:55.320Z,56.40
2019-04-14T01:24:24.980Z,54.37
2019-04-14T01:26:55.042Z,49.40
2019-04-14T01:29:25.504Z,51.73
2019-04-14T01:31:55.801Z,51.30
2019-04-14T01:34:26.027Z,55.27
2019-04-14T01:36:56.120Z,54.63
2019-04-14T01:39:26.529Z,51.43
2019-04-14T01:41:56.430Z,54.03
2019-04-14T01:44:26.483Z,51.90
2019-04-14T01:46:56.599Z,54.33
2019-04-14T01:49:26.862Z,53.87
2019-04-14T01:52:27.465Z,52.57
2019-04-14T01:55:15.384Z,55.10
2019-04-14T01:57:55.255Z,53.53
2019-04-14T02:00:55.461Z,51.17
2019-04-14T02:03:25.962Z,53.03
2019-04-14T02:05:56.093Z,49.10
2019-04-14T02:08:26.264Z,51.27
2019-04-14T02:10:56.579Z,53.40
2019-04-14T02:13:26.807Z,47.80
2019-04-14T02:15:57.296Z,48.63
2019-04-14T02:18:27.272Z,54.43
2019-04-14T02:20:57.803Z,52.93
2019-04-14T02:23:27.968Z,51.90
2019-04-14T02:25:57.953Z,52.80
2019-04-14T02:28:28.783Z,53.07
2019-04-14T02:31:10.517Z,48.13
2019-04-14T02:33:54.051Z,46.90
2019-04-14T02:39:15.569Z,54.40
2019-04-14T02:41:43.561Z,54.60
2019-04-14T02:44:04.988Z,58.80
2019-04-14T02:46:40.050Z,56.50
2019-04-14T02:49:08.254Z,52.10
2019-04-14T02:54:08.695Z,54.70
2019-04-14T02:56:38.943Z,54.23
2019-04-14T03:01:38.798Z,56.80
2019-04-14T03:04:09.123Z,52.63
2019-04-14T03:06:41.430Z,53.23
2019-04-14T03:14:15.608Z,53.43
2019-04-14T03:17:14.334Z,52.17
2019-04-14T03:20:05.358Z,52.47
2019-04-14T03:22:43.985Z,52.87
2019-04-14T03:25:15.223Z,52.07
2019-04-14T03:28:06.978Z,55.80
2019-04-14T03:30:57.672Z,55.27
2019-04-14T03:43:09.911Z,54.33
2019-04-14T03:45:43.343Z,59.17
2019-04-14T03:48:45.036Z,56.20
2019-04-14T03:50:50.214Z,55.67
2019-04-14T03:53:17.514Z,56.93
2019-04-14T03:55:58.845Z,56.37
2019-04-14T03:58:24.654Z,55.30
2019-04-14T04:00:55.391Z,57.97
2019-04-14T04:03:25.960Z,55.50
2019-04-14T04:05:56.423Z,59.70
2019-04-14T04:08:26.705Z,60.40
2019-04-14T04:10:57.611Z,57.33
2019-04-14T04:13:28.081Z,54.10
2019-04-14T04:16:13.677Z,55.57
2019-04-14T04:18:50.936Z,58.07
2019-04-14T04:21:22.723Z,56.40
2019-04-14T04:24:02.257Z,59.20
2019-04-14T04:26:40.707Z,54.93
2019-04-14T04:29:16.468Z,57.93
2019-04-14T04:32:23.073Z,55.53
2019-04-14T04:35:06.963Z,56.50
2019-04-14T04:37:45.556Z,60.40
2019-04-14T04:40:24.705Z,53.53
2019-04-14T04:42:54.826Z,59.03
2019-04-14T04:45:24.202Z,57.37
2019-04-14T04:47:53.552Z,58.03
2019-04-14T04:50:23.883Z,53.93
2019-04-14T04:52:54.000Z,58.57
2019-04-14T04:55:24.179Z,57.03
2019-04-14T04:57:54.537Z,57.53
2019-04-14T05:00:24.451Z,54.27
2019-04-14T05:02:54.732Z,55.23
2019-04-14T05:06:00.438Z,58.23
2019-04-14T05:08:30.471Z,60.17
2019-04-14T05:11:10.264Z,62.27
2019-04-14T05:13:42.359Z,60.93
2019-04-14T05:16:12.794Z,62.90
2019-04-14T05:18:42.362Z,58.87
2019-04-14T05:21:12.689Z,64.00
2019-04-14T05:23:43.067Z,65.03
2019-04-14T05:26:13.444Z,61.40
2019-04-14T05:28:43.853Z,63.73
2019-04-14T05:31:14.310Z,68.23
2019-04-14T05:33:44.662Z,63.20
2019-04-14T05:36:15.038Z,60.93
2019-04-14T05:38:45.021Z,61.43
2019-04-14T05:41:15.847Z,66.37
2019-04-14T05:43:50.209Z,65.87
2019-04-14T05:46:16.409Z,69.13
2019-04-14T05:48:47.144Z,65.33
2019-04-14T05:51:19.894Z,68.57
2019-04-14T05:53:48.588Z,63.43
2019-04-14T05:56:18.624Z,66.83
2019-04-14T05:58:49.243Z,66.50
2019-04-14T06:01:18.639Z,66.50
2019-04-14T06:03:48.160Z,66.40
2019-04-14T06:06:17.425Z,64.20
2019-04-14T06:08:46.983Z,65.33
2019-04-14T06:11:16.344Z,69.47
2019-04-14T06:13:45.632Z,68.00
2019-04-14T06:16:14.900Z,65.57
2019-04-14T06:18:44.333Z,72.00
2019-04-14T06:21:13.855Z,74.03
2019-04-14T06:23:43.392Z,67.67
2019-04-14T06:26:12.688Z,64.13
2019-04-14T06:28:42.678Z,62.80
2019-04-14T06:31:24.427Z,64.77
2019-04-14T06:34:01.407Z,63.27
2019-04-14T06:36:51.594Z,62.07
2019-04-14T06:39:24.415Z,60.23
2019-04-14T06:41:53.691Z,61.57
2019-04-14T06:44:23.289Z,61.40
2019-04-14T06:46:52.579Z,62.13
2019-04-14T06:49:21.843Z,54.83
2019-04-14T06:51:51.365Z,55.23
2019-04-14T06:54:20.645Z,52.07
2019-04-14T06:56:49.980Z,55.00
2019-04-14T06:59:19.613Z,53.53
2019-04-14T07:01:48.896Z,55.33
2019-04-14T07:04:18.271Z,50.50
2019-04-14T07:06:47.688Z,47.33
2019-04-14T07:09:16.992Z,50.50
2019-04-14T07:11:47.047Z,47.60
2019-04-14T07:14:16.394Z,50.03
2019-04-14T07:16:46.032Z,47.80
2019-04-14T07:19:15.599Z,44.20
2019-04-14T07:21:45.229Z,47.00
2019-04-14T07:24:14.498Z,44.53
2019-04-14T07:26:43.767Z,46.87
2019-04-14T07:29:14.719Z,42.70
2019-04-14T07:32:09.210Z,42.47
2019-04-14T07:34:47.627Z,41.57
2019-04-14T07:37:26.705Z,42.17
2019-04-14T07:40:07.443Z,44.50
2019-04-14T07:42:55.688Z,38.37
2019-04-14T07:45:42.438Z,40.23
2019-04-14T07:48:30.735Z,39.47
2019-04-14T07:51:21.695Z,41.70
2019-04-14T07:53:54.315Z,41.43
2019-04-14T07:56:38.093Z,38.37
2019-04-14T07:59:29.461Z,40.70
2019-04-14T08:02:07.913Z,38.47
2019-04-14T08:04:41.472Z,44.50
2019-04-14T08:07:10.784Z,37.87
2019-04-14T08:09:40.051Z,38.40
2019-04-14T08:12:09.652Z,41.40
2019-04-14T08:14:39.265Z,37.87
2019-04-14T08:17:09.010Z,36.80
2019-04-14T08:19:38.624Z,36.70
2019-04-14T08:22:07.963Z,41.17
2019-04-14T08:24:37.531Z,33.40
2019-04-14T08:27:06.875Z,39.57
2019-04-14T08:29:36.208Z,37.40
2019-04-14T08:32:05.654Z,34.73
2019-04-14T08:34:36.793Z,31.10
2019-04-14T08:37:06.067Z,35.70
2019-04-14T08:39:38.067Z,38.87
2019-04-14T08:42:16.100Z,36.13
2019-04-14T08:44:47.262Z,36.00
2019-04-14T08:47:35.793Z,34.03
2019-04-14T08:50:39.381Z,30.70
2019-04-14T08:53:19.741Z,34.73
2019-04-14T08:56:07.959Z,29.90
2019-04-14T08:58:59.688Z,33.13
2019-04-14T09:01:37.252Z,31.10
2019-04-14T09:04:20.656Z,31.67
2019-04-14T09:07:18.192Z,31.17
2019-04-14T09:09:51.877Z,36.50
2019-04-14T09:12:24.671Z,29.30
2019-04-14T09:14:57.267Z,30.17
2019-04-14T09:17:26.324Z,32.23
2019-04-14T09:19:56.055Z,30.67
2019-04-14T09:22:25.619Z,31.13
2019-04-14T09:24:54.894Z,33.70
2019-04-14T09:27:24.200Z,36.63
2019-04-14T09:29:53.667Z,31.10
2019-04-14T09:32:23.400Z,31.33
2019-04-14T09:34:52.979Z,26.80
2019-04-14T09:37:22.226Z,27.93
2019-04-14T09:39:51.574Z,30.57
2019-04-14T09:42:21.176Z,29.80
2019-04-14T09:44:50.504Z,29.07
2019-04-14T09:47:20.418Z,30.23
2019-04-14T09:49:49.674Z,29.80
2019-04-14T09:52:19.064Z,28.03
2019-04-14T09:54:48.356Z,28.37
2019-04-14T09:57:17.932Z,35.20
2019-04-14T09:59:47.202Z,29.57
2019-04-14T10:02:16.456Z,32.03
2019-04-14T10:04:46.076Z,27.70
2019-04-14T10:07:15.345Z,28.90
2019-04-14T10:09:44.715Z,28.63
2019-04-14T10:12:14.065Z,26.17
2019-04-14T10:14:43.677Z,29.47
2019-04-14T10:17:12.931Z,28.63
2019-04-14T10:19:42.524Z,32.60
2019-04-14T10:22:11.843Z,27.77
2019-04-14T10:24:41.420Z,29.77
2019-04-14T10:27:10.987Z,31.97
2019-04-14T10:29:40.292Z,27.47
2019-04-14T10:32:09.583Z,31.60
2019-04-14T10:34:38.872Z,23.70
2019-04-14T10:37:08.235Z,25.57
2019-04-14T10:39:37.891Z,27.03
2019-04-14T10:42:07.652Z,25.57
2019-04-14T10:44:37.487Z,25.93
2019-04-14T10:47:06.764Z,23.77
2019-04-14T10:49:36.346Z,25.47
2019-04-14T10:52:05.606Z,22.37
2019-04-14T10:54:34.923Z,22.73
2019-04-14T10:57:04.267Z,24.53
2019-04-14T10:59:33.572Z,22.03
2019-04-14T11:02:02.837Z,24.57
2019-04-14T11:04:32.132Z,20.10
2019-04-14T11:07:07.130Z,20.87
2019-04-14T11:09:38.471Z,23.90
2019-04-14T11:12:08.095Z,24.10
2019-04-14T11:14:42.093Z,19.47
2019-04-14T11:17:11.607Z,23.23
2019-04-14T11:19:40.901Z,21.03
2019-04-14T11:22:10.806Z,20.93
2019-04-14T11:24:40.364Z,20.27
2019-04-14T11:27:09.653Z,19.33
2019-04-14T11:29:39.173Z,21.20
2019-04-14T11:32:34.403Z,23.30
2019-04-14T11:35:21.303Z,20.33
2019-04-14T11:38:15.763Z,21.30
2019-04-14T11:40:48.068Z,21.97
2019-04-14T11:43:17.633Z,22.40
2019-04-14T11:45:47.032Z,22.20
2019-04-14T11:48:16.631Z,24.70
2019-04-14T11:50:45.979Z,21.67
2019-04-14T11:53:15.277Z,22.80
2019-04-14T11:55:44.633Z,20.57
2019-04-14T11:58:14.197Z,24.20
2019-04-14T12:01:05.530Z,19.53
2019-04-14T12:03:54.240Z,20.17
2019-04-14T12:06:48.551Z,19.00
2019-04-14T12:09:21.091Z,19.83
2019-04-14T12:11:50.910Z,18.43
2019-04-14T12:14:23.451Z,17.80
2019-04-14T12:16:52.786Z,19.50
2019-04-14T12:19:22.644Z,18.23
2019-04-14T12:21:52.040Z,17.90
2019-04-14T12:24:21.586Z,17.83
2019-04-14T12:26:50.899Z,16.97
2019-04-14T12:29:21.433Z,17.23
2019-04-14T12:31:51.047Z,18.87
2019-04-14T12:34:21.001Z,19.80
2019-04-14T12:36:50.581Z,19.03
2019-04-14T12:39:23.242Z,18.23
2019-04-14T12:42:06.037Z,20.13
2019-04-14T12:45:04.004Z,16.83
2019-04-14T12:47:50.823Z,16.20
2019-04-14T12:50:26.727Z,20.50
2019-04-14T12:52:56.586Z,19.77
2019-04-14T12:55:25.994Z,20.17
2019-04-14T12:57:58.250Z,21.17
2019-04-14T13:00:34.326Z,19.27
2019-04-14T13:03:03.849Z,20.10
2019-04-14T13:05:33.144Z,22.43
2019-04-14T13:08:02.735Z,17.53
2019-04-14T13:10:32.095Z,18.33
2019-04-14T13:13:01.352Z,21.73
2019-04-14T13:15:30.662Z,22.50
2019-04-14T13:18:00.007Z,20.17
2019-04-14T13:20:29.543Z,20.97
2019-04-14T13:22:58.817Z,21.77
2019-04-14T13:25:28.397Z,20.03
2019-04-14T13:27:57.654Z,19.93
2019-04-14T13:30:30.430Z,20.07
2019-04-14T13:32:59.823Z,19.97
2019-04-14T13:35:29.395Z,20.17
2019-04-14T13:37:59.433Z,20.30
2019-04-14T13:40:28.976Z,20.30
2019-04-14T13:42:58.402Z,20.97
2019-04-14T13:45:27.655Z,20.57
2019-04-14T13:47:56.984Z,20.83
2019-04-14T13:50:26.264Z,19.40
2019-04-14T13:52:55.827Z,21.70
2019-04-14T13:55:25.135Z,21.70
2019-04-14T13:57:54.797Z,17.47
2019-04-14T14:00:24.636Z,20.97
2019-04-14T14:02:54.206Z,28.03
2019-04-14T14:05:23.998Z,21.17
2019-04-14T14:07:53.556Z,17.77
2019-04-14T14:10:22.839Z,17.63
2019-04-14T14:13:04.719Z,20.17
2019-04-14T14:15:59.399Z,21.07
2019-04-14T14:18:40.160Z,22.40
2019-04-14T14:21:47.143Z,20.33
2019-04-14T14:24:50.672Z,18.70
2019-04-14T14:27:19.954Z,22.30
2019-04-14T14:29:49.237Z,20.97
2019-04-14T14:32:33.512Z,18.47
2019-04-14T14:35:03.071Z,22.77
2019-04-14T14:37:32.704Z,19.07
2019-04-14T14:40:01.980Z,21.97
2019-04-14T14:42:31.808Z,21.53
2019-04-14T14:45:20.048Z,22.23
2019-04-14T14:48:01.858Z,22.07
2019-04-14T14:50:41.928Z,22.60
2019-04-14T14:53:12.286Z,22.13
2019-04-14T14:55:42.223Z,24.27
2019-04-14T14:58:11.531Z,21.60
2019-04-14T15:00:41.276Z,23.77
2019-04-14T15:03:10.893Z,20.90
2019-04-14T15:05:40.611Z,26.20
2019-04-14T15:08:10.367Z,27.40
2019-04-14T15:10:39.928Z,21.07
2019-04-14T15:13:09.312Z,24.97
2019-04-14T15:15:38.623Z,22.63
2019-04-14T15:18:08.207Z,19.87
2019-04-14T15:20:38.216Z,21.07
2019-04-14T15:23:08.067Z,23.47
2019-04-14T15:25:37.347Z,23.77
2019-04-14T15:28:06.939Z,20.10
2019-04-14T15:30:36.466Z,25.60
2019-04-14T15:33:05.822Z,21.60
2019-04-14T15:35:35.231Z,21.27
2019-04-14T15:38:04.852Z,23.93
2019-04-14T15:40:34.215Z,20.80
2019-04-14T15:43:03.852Z,24.27
2019-04-14T15:45:33.124Z,20.73
2019-04-14T15:48:02.693Z,18.87
2019-04-14T15:50:32.276Z,21.03
2019-04-14T15:53:01.802Z,20.73
2019-04-14T15:55:31.339Z,24.10
2019-04-14T15:58:19.592Z,21.30
2019-04-14T16:01:17.370Z,24.83
2019-04-14T16:04:05.699Z,19.30
2019-04-14T16:07:06.371Z,24.27
2019-04-14T16:10:06.847Z,19.50
2019-04-14T16:12:55.623Z,19.67
2019-04-14T16:15:31.102Z,22.23
2019-04-14T16:18:28.959Z,20.40
2019-04-14T16:20:58.249Z,21.77
2019-04-14T16:23:27.831Z,21.07
2019-04-14T16:26:06.197Z,23.67
2019-04-14T16:28:54.459Z,20.23
2019-04-14T16:32:04.567Z,22.47
2019-04-14T16:34:52.870Z,24.97
2019-04-14T16:37:22.617Z,24.00
2019-04-14T16:39:52.191Z,22.00
2019-04-14T16:42:21.525Z,20.73
2019-04-14T16:44:53.725Z,20.50
2019-04-14T16:47:23.316Z,22.70
2019-04-14T16:49:55.617Z,21.17
2019-04-14T16:52:44.400Z,20.17
2019-04-14T16:55:44.756Z,22.60
2019-04-14T16:58:19.401Z,21.10
2019-04-14T17:01:04.352Z,20.10
2019-04-14T17:03:33.720Z,21.87
2019-04-14T17:06:03.169Z,21.77
2019-04-14T17:08:32.820Z,24.97
2019-04-14T17:11:02.478Z,22.07
2019-04-14T17:13:34.662Z,20.33
2019-04-14T17:16:38.413Z,22.57
2019-04-14T17:19:21.864Z,21.77
2019-04-14T17:22:00.084Z,25.37
2019-04-14T17:24:48.295Z,20.40
2019-04-14T17:27:45.565Z,20.93
2019-04-14T17:30:33.012Z,25.03
2019-04-14T17:33:21.255Z,22.43
2019-04-14T17:36:18.550Z,21.33
2019-04-14T17:39:10.285Z,22.00
2019-04-14T17:41:47.855Z,19.63
2019-04-14T17:44:31.984Z,24.77
2019-04-14T17:47:13.235Z,21.53
2019-04-14T17:50:00.808Z,20.10
2019-04-14T17:52:45.378Z,16.40
2019-04-14T17:55:20.533Z,20.27
2019-04-14T17:57:54.644Z,19.20
2019-04-14T18:00:40.914Z,20.57
2019-04-14T18:03:21.692Z,23.03
2019-04-14T18:05:54.178Z,22.73
2019-04-14T18:08:33.715Z,20.93
2019-04-14T18:11:08.717Z,23.27
2019-04-14T18:13:57.001Z,23.70
2019-04-14T18:16:33.806Z,23.90
2019-04-14T18:19:16.410Z,26.00
2019-04-14T18:21:45.724Z,22.33
2019-04-14T18:24:15.285Z,20.20
2019-04-14T18:26:44.816Z,22.37
2019-04-14T18:29:30.876Z,24.00
2019-04-14T18:32:26.109Z,23.37
2019-04-14T18:35:04.261Z,27.27
2019-04-14T18:37:52.500Z,24.40
2019-04-14T18:40:26.220Z,22.53
2019-04-14T18:43:26.281Z,25.00
2019-04-14T18:46:03.271Z,25.73
2019-04-14T18:48:36.951Z,20.93
2019-04-14T18:51:17.314Z,27.13
2019-04-14T18:54:17.817Z,24.50
2019-04-14T18:57:04.915Z,22.53
2019-04-14T19:00:11.452Z,23.70
2019-04-14T19:02:40.794Z,24.23
2019-04-14T19:05:10.724Z,25.03
2019-04-14T19:07:40.291Z,23.10
2019-04-14T19:10:09.762Z,25.00
2019-04-14T19:13:04.052Z,24.07
2019-04-14T19:15:58.380Z,24.67
2019-04-14T19:18:30.800Z,25.37
2019-04-14T19:21:06.638Z,24.53
2019-04-14T19:23:35.919Z,30.20
2019-04-14T19:26:05.560Z,23.20
2019-04-14T19:28:35.078Z,24.40
2019-04-14T19:31:04.640Z,22.47
2019-04-14T19:33:33.988Z,24.97
2019-04-14T19:36:03.391Z,21.33
2019-04-14T19:38:32.954Z,21.97
2019-04-14T19:41:02.475Z,24.20
2019-04-14T19:43:31.787Z,20.87
2019-04-14T19:46:01.403Z,21.63
2019-04-14T19:48:30.924Z,20.03
2019-04-14T19:51:00.572Z,23.30
2019-04-14T19:53:30.201Z,19.87
2019-04-14T19:55:59.478Z,21.10
2019-04-14T19:58:29.234Z,20.07
2019-04-14T20:00:59.071Z,16.77
2019-04-14T20:03:28.628Z,20.07
2019-04-14T20:05:57.922Z,18.13
2019-04-14T20:08:27.476Z,20.00
2019-04-14T20:10:57.175Z,17.57
2019-04-14T20:13:28.267Z,19.10
2019-04-14T20:16:23.059Z,18.80
2019-04-14T20:19:23.607Z,19.23
2019-04-14T20:22:17.687Z,18.77
2019-04-14T20:24:51.449Z,17.83
2019-04-14T20:27:45.845Z,22.13
2019-04-14T20:30:22.899Z,20.00
2019-04-14T20:32:52.171Z,18.90
2019-04-14T20:35:21.612Z,21.63
2019-04-14T20:37:51.718Z,20.43
2019-04-14T20:40:21.263Z,17.90
2019-04-14T20:42:50.550Z,19.87
2019-04-14T20:45:20.082Z,18.67
2019-04-14T20:47:49.640Z,21.83
2019-04-14T20:50:19.175Z,18.80
2019-04-14T20:52:48.528Z,19.50
2019-04-14T20:55:18.139Z,19.63
2019-04-14T20:57:47.758Z,19.97
2019-04-14T21:00:20.806Z,22.03
2019-04-14T21:03:09.656Z,21.17
2019-04-14T21:05:56.899Z,18.03
2019-04-14T21:08:44.582Z,21.00
2019-04-14T21:11:20.778Z,19.40
2019-04-14T21:14:04.756Z,21.30
2019-04-14T21:16:47.384Z,35.83
2019-04-14T21:19:23.602Z,20.93
2019-04-14T21:22:14.903Z,17.50
2019-04-14T21:24:48.598Z,19.23
2019-04-14T21:27:23.654Z,19.17
2019-04-14T21:30:11.894Z,19.27
2019-04-14T21:32:46.667Z,18.57
2019-04-14T21:35:41.563Z,15.77
2019-04-14T21:38:27.871Z,18.17
2019-04-14T21:41:04.807Z,16.77
2019-04-14T21:43:34.371Z,15.67
2019-04-14T21:46:03.696Z,15.03
2019-04-14T21:48:33.281Z,17.23
2019-04-14T21:51:02.567Z,16.67
2019-04-14T21:53:31.827Z,17.70
2019-04-14T21:56:12.867Z,15.17
2019-04-14T21:58:42.760Z,17.57
2019-04-14T22:01:54.703Z,16.17
2019-04-14T22:04:43.138Z,17.60
2019-04-14T22:07:32.278Z,18.07
2019-04-14T22:10:10.547Z,16.17
2019-04-14T22:12:42.457Z,17.57
2019-04-14T22:15:14.591Z,19.07
2019-04-14T22:17:46.776Z,19.67
2019-04-14T22:20:16.263Z,18.57
2019-04-14T22:22:45.536Z,19.80
2019-04-14T22:25:15.197Z,19.63
2019-04-14T22:27:44.479Z,19.40
2019-04-14T22:30:17.022Z,17.57
2019-04-14T22:32:49.370Z,18.80
2019-04-14T22:35:18.760Z,20.90
2019-04-14T22:37:48.048Z,22.47
2019-04-14T22:40:17.361Z,20.00
2019-04-14T22:42:46.998Z,20.30
2019-04-14T22:45:16.303Z,17.50
2019-04-14T22:47:46.505Z,18.07
2019-04-14T22:50:23.369Z,17.53
2019-04-14T22:52:53.036Z,19.43
2019-04-14T22:55:22.373Z,15.90
2019-04-14T22:57:51.695Z,15.83
2019-04-14T23:00:40.276Z,14.93
2019-04-14T23:03:38.127Z,16.97
2019-04-14T23:06:29.923Z,16.03
2019-04-14T23:09:17.082Z,13.83
2019-04-14T23:11:53.589Z,13.00
2019-04-14T23:14:35.303Z,16.87
2019-04-14T23:17:24.276Z,13.97
2019-04-14T23:20:23.076Z,12.57
2019-04-14T23:23:09.978Z,11.93
2019-04-14T23:25:39.484Z,12.23
2019-04-14T23:28:11.848Z,10.90
2019-04-14T23:30:41.220Z,11.20
2019-04-14T23:33:13.679Z,10.63
2019-04-14T23:35:43.177Z,11.27
2019-04-14T23:38:12.987Z,11.53
2019-04-14T23:40:42.573Z,11.57
2019-04-14T23:43:12.311Z,11.97
2019-04-14T23:45:41.602Z,12.37
2019-04-14T23:48:11.472Z,11.30
2019-04-14T23:50:40.882Z,20.03
2019-04-14T23:53:10.644Z,16.43
2019-04-14T23:55:40.304Z,12.47
2019-04-14T23:58:36.696Z,11.50
